createdAt,value
2019-02-24T00:00:24.866Z,5.47
2019-02-24T00:01:23.458Z,5.43
2019-02-24T00:02:23.439Z,5.36
2019-02-24T00:03:23.428Z,5.43
2019-02-24T00:04:23.415Z,5.55
2019-02-24T00:05:23.401Z,5.50
2019-02-24T00:06:23.392Z,5.54
2019-02-24T00:07:23.398Z,5.50
2019-02-24T00:08:23.377Z,5.54
2019-02-24T00:09:23.380Z,5.40
2019-02-24T00:10:23.357Z,5.54
2019-02-24T00:11:23.343Z,5.54
2019-02-24T00:12:23.329Z,5.40
2019-02-24T00:13:23.319Z,5.52
2019-02-24T00:14:23.304Z,5.52
2019-02-24T00:15:23.305Z,5.48
2019-02-24T00:16:23.286Z,5.50
2019-02-24T00:17:23.270Z,5.50
2019-02-24T00:18:23.260Z,5.34
2019-02-24T00:19:23.285Z,5.39
2019-02-24T00:20:23.237Z,5.47
2019-02-24T00:21:23.230Z,5.50
2019-02-24T00:22:23.220Z,5.41
2019-02-24T00:23:23.205Z,5.48
2019-02-24T00:24:23.196Z,5.54
2019-02-24T00:25:23.183Z,5.58
2019-02-24T00:26:23.170Z,5.41
2019-02-24T00:27:23.163Z,5.48
2019-02-24T00:28:23.154Z,5.52
2019-02-24T00:29:23.144Z,5.59
2019-02-24T00:30:23.132Z,5.57
2019-02-24T00:31:23.119Z,5.61
2019-02-24T00:32:23.106Z,5.57
2019-02-24T00:33:23.099Z,5.54
2019-02-24T00:34:23.088Z,5.57
2019-02-24T00:35:23.077Z,5.57
2019-02-24T00:36:23.078Z,5.57
2019-02-24T00:37:23.053Z,5.52
2019-02-24T00:38:23.038Z,5.43
2019-02-24T00:39:23.033Z,5.58
2019-02-24T00:40:23.027Z,5.55
2019-02-24T00:41:23.014Z,5.55
2019-02-24T00:42:22.998Z,5.54
2019-02-24T00:43:22.990Z,5.55
2019-02-24T00:44:22.972Z,5.55
2019-02-24T00:45:22.967Z,5.54
2019-02-24T00:46:22.953Z,5.54
2019-02-24T00:47:22.946Z,5.50
2019-02-24T00:48:22.936Z,5.44
2019-02-24T00:49:22.922Z,5.54
2019-02-24T00:50:22.907Z,5.50
2019-02-24T00:51:22.903Z,5.51
2019-02-24T00:52:22.890Z,5.51
2019-02-24T00:53:22.879Z,5.48
2019-02-24T00:54:22.868Z,5.41
2019-02-24T00:55:22.860Z,5.43
2019-02-24T00:56:22.842Z,5.39
2019-02-24T00:57:22.830Z,5.34
2019-02-24T00:58:22.825Z,5.39
2019-02-24T00:59:22.827Z,5.44
2019-02-24T01:00:22.802Z,5.43
2019-02-24T01:01:22.790Z,5.43
2019-02-24T01:02:22.817Z,5.40
2019-02-24T01:03:22.769Z,5.30
2019-02-24T01:04:22.754Z,5.40
2019-02-24T01:05:22.740Z,5.32
2019-02-24T01:06:22.734Z,5.37
2019-02-24T01:07:22.722Z,5.37
2019-02-24T01:08:22.713Z,5.34
2019-02-24T01:09:22.697Z,5.36
2019-02-24T01:10:22.690Z,5.44
2019-02-24T01:11:22.680Z,5.43
2019-02-24T01:12:22.671Z,5.40
2019-02-24T01:13:22.670Z,5.37
2019-02-24T01:14:22.644Z,5.43
2019-02-24T01:15:22.635Z,5.44
2019-02-24T01:16:36.951Z,5.41
2019-02-24T01:17:22.607Z,5.37
2019-02-24T01:18:22.599Z,5.37
2019-02-24T01:19:22.592Z,5.40
2019-02-24T01:20:22.581Z,5.47
2019-02-24T01:21:22.565Z,5.37
2019-02-24T01:22:22.554Z,5.43
2019-02-24T01:23:22.546Z,5.50
2019-02-24T01:24:22.536Z,5.41
2019-02-24T01:25:22.523Z,5.50
2019-02-24T01:26:22.515Z,5.44
2019-02-24T01:27:22.500Z,5.48
2019-02-24T01:28:25.227Z,5.54
2019-02-24T01:29:22.476Z,5.57
2019-02-24T01:30:22.465Z,5.57
2019-02-24T01:31:22.459Z,5.51
2019-02-24T01:32:22.450Z,5.48
2019-02-24T01:33:22.445Z,5.50
2019-02-24T01:34:22.423Z,5.50
2019-02-24T01:35:22.412Z,5.48
2019-02-24T01:36:22.398Z,5.39
2019-02-24T01:37:22.392Z,5.54
2019-02-24T01:38:22.378Z,5.51
2019-02-24T01:39:22.368Z,5.44
2019-02-24T01:40:22.355Z,5.55
2019-02-24T01:41:22.342Z,5.51
2019-02-24T01:42:22.333Z,5.54
2019-02-24T01:43:22.318Z,5.47
2019-02-24T01:44:22.313Z,5.39
2019-02-24T01:45:22.302Z,5.41
2019-02-24T01:46:22.291Z,5.44
2019-02-24T01:47:22.277Z,5.52
2019-02-24T01:48:22.267Z,5.50
2019-02-24T01:49:22.258Z,5.55
2019-02-24T01:50:22.245Z,5.47
2019-02-24T01:51:22.236Z,5.57
2019-02-24T01:52:22.226Z,5.41
2019-02-24T01:53:22.210Z,5.50
2019-02-24T01:54:22.197Z,5.40
2019-02-24T01:55:22.188Z,5.48
2019-02-24T01:56:22.194Z,5.50
2019-02-24T01:57:22.170Z,5.52
2019-02-24T01:58:22.170Z,5.51
2019-02-24T01:59:22.144Z,5.51
2019-02-24T02:00:22.131Z,5.43
2019-02-24T02:01:22.123Z,5.41
2019-02-24T02:02:22.113Z,5.51
2019-02-24T02:03:22.107Z,5.44
2019-02-24T02:04:22.094Z,5.48
2019-02-24T02:05:22.082Z,5.44
2019-02-24T02:06:22.070Z,5.40
2019-02-24T02:07:22.054Z,5.40
2019-02-24T02:08:22.045Z,5.43
2019-02-24T02:09:22.033Z,5.36
2019-02-24T02:10:22.024Z,5.47
2019-02-24T02:11:22.014Z,5.43
2019-02-24T02:12:22.000Z,5.44
2019-02-24T02:13:21.992Z,5.43
2019-02-24T02:14:21.983Z,5.40
2019-02-24T02:15:21.973Z,5.44
2019-02-24T02:16:21.966Z,5.48
2019-02-24T02:17:21.946Z,5.40
2019-02-24T02:18:21.935Z,5.40
2019-02-24T02:19:21.929Z,5.37
2019-02-24T02:20:21.915Z,5.33
2019-02-24T02:21:21.899Z,5.33
2019-02-24T02:22:21.888Z,5.36
2019-02-24T02:23:21.882Z,5.37
2019-02-24T02:24:21.872Z,5.32
2019-02-24T02:25:21.859Z,5.29
2019-02-24T02:26:21.847Z,5.34
2019-02-24T02:27:21.840Z,5.36
2019-02-24T02:28:21.826Z,5.29
2019-02-24T02:29:21.817Z,5.29
2019-02-24T02:30:21.805Z,5.25
2019-02-24T02:31:21.789Z,5.25
2019-02-24T02:32:21.778Z,5.25
2019-02-24T02:33:21.774Z,5.30
2019-02-24T02:34:21.757Z,5.24
2019-02-24T02:35:21.749Z,5.18
2019-02-24T02:36:21.745Z,5.25
2019-02-24T02:37:21.733Z,5.25
2019-02-24T02:38:21.715Z,5.11
2019-02-24T02:39:21.704Z,5.32
2019-02-24T02:40:21.690Z,5.22
2019-02-24T02:41:21.681Z,5.16
2019-02-24T02:42:21.671Z,5.22
2019-02-24T02:43:21.656Z,5.22
2019-02-24T02:44:21.646Z,5.21
2019-02-24T02:45:21.638Z,5.19
2019-02-24T02:46:21.620Z,5.12
2019-02-24T02:47:21.614Z,5.18
2019-02-24T02:48:21.600Z,5.09
2019-02-24T02:49:21.585Z,5.15
2019-02-24T02:50:21.589Z,5.16
2019-02-24T02:51:21.568Z,5.11
2019-02-24T02:52:21.558Z,5.14
2019-02-24T02:53:21.545Z,5.16
2019-02-24T02:54:21.533Z,5.19
2019-02-24T02:55:21.534Z,5.15
2019-02-24T02:56:21.512Z,5.19
2019-02-24T02:57:21.499Z,5.19
2019-02-24T02:58:21.488Z,5.24
2019-02-24T02:59:21.486Z,5.14
2019-02-24T03:00:21.473Z,5.15
2019-02-24T03:01:21.459Z,5.21
2019-02-24T03:02:24.456Z,5.19
2019-02-24T03:03:21.432Z,5.19
2019-02-24T03:04:21.421Z,5.14
2019-02-24T03:05:21.410Z,5.16
2019-02-24T03:06:21.396Z,5.16
2019-02-24T03:07:21.388Z,5.15
2019-02-24T03:08:21.378Z,5.15
2019-02-24T03:09:21.367Z,5.24
2019-02-24T03:10:21.359Z,5.21
2019-02-24T03:11:21.352Z,5.18
2019-02-24T03:12:21.332Z,5.19
2019-02-24T03:13:21.324Z,5.16
2019-02-24T03:14:21.317Z,5.18
2019-02-24T03:15:21.295Z,5.19
2019-02-24T03:16:22.987Z,5.12
2019-02-24T03:17:21.273Z,5.16
2019-02-24T03:18:21.262Z,5.14
2019-02-24T03:19:21.257Z,5.18
2019-02-24T03:20:21.242Z,5.19
2019-02-24T03:21:21.246Z,5.21
2019-02-24T03:22:21.220Z,5.16
2019-02-24T03:23:21.207Z,5.14
2019-02-24T03:24:21.198Z,5.12
2019-02-24T03:25:21.182Z,5.21
2019-02-24T03:26:21.173Z,5.18
2019-02-24T03:27:21.167Z,5.19
2019-02-24T03:28:21.155Z,5.16
2019-02-24T03:29:21.142Z,5.18
2019-02-24T03:30:21.128Z,5.21
2019-02-24T03:31:21.138Z,5.19
2019-02-24T03:32:21.114Z,5.19
2019-02-24T03:33:21.104Z,5.16
2019-02-24T03:34:21.089Z,5.18
2019-02-24T03:35:21.072Z,5.15
2019-02-24T03:36:21.062Z,5.14
2019-02-24T03:37:21.052Z,5.18
2019-02-24T03:38:21.045Z,5.18
2019-02-24T03:39:21.033Z,5.22
2019-02-24T03:40:21.019Z,5.15
2019-02-24T03:41:21.007Z,5.15
2019-02-24T03:42:20.995Z,5.18
2019-02-24T03:43:20.984Z,5.15
2019-02-24T03:44:20.976Z,5.21
2019-02-24T03:45:20.993Z,5.18
2019-02-24T03:46:20.954Z,5.19
2019-02-24T03:47:20.940Z,5.30
2019-02-24T03:48:20.926Z,5.29
2019-02-24T03:49:20.915Z,5.27
2019-02-24T03:50:20.904Z,5.30
2019-02-24T03:51:20.898Z,5.32
2019-02-24T03:52:20.883Z,5.30
2019-02-24T03:53:20.875Z,5.29
2019-02-24T03:54:20.862Z,5.25
2019-02-24T03:55:20.851Z,5.27
2019-02-24T03:56:21.607Z,5.24
2019-02-24T03:57:20.828Z,5.25
2019-02-24T03:58:20.813Z,5.24
2019-02-24T03:59:20.809Z,5.25
2019-02-24T04:00:20.801Z,5.24
2019-02-24T04:01:20.782Z,5.27
2019-02-24T04:02:20.771Z,5.21
2019-02-24T04:03:20.764Z,5.33
2019-02-24T04:04:20.751Z,5.32
2019-02-24T04:05:20.739Z,5.39
2019-02-24T04:06:20.731Z,5.34
2019-02-24T04:07:20.717Z,5.41
2019-02-24T04:08:20.707Z,5.37
2019-02-24T04:09:20.695Z,5.41
2019-02-24T04:10:20.681Z,5.40
2019-02-24T04:11:20.674Z,5.43
2019-02-24T04:12:20.663Z,5.39
2019-02-24T04:13:20.652Z,5.44
2019-02-24T04:14:20.652Z,5.43
2019-02-24T04:15:20.620Z,5.34
2019-02-24T04:16:20.614Z,5.40
2019-02-24T04:17:20.602Z,5.40
2019-02-24T04:18:20.603Z,5.33
2019-02-24T04:19:20.576Z,5.32
2019-02-24T04:20:20.568Z,5.29
2019-02-24T04:21:20.558Z,5.39
2019-02-24T04:22:20.544Z,5.39
2019-02-24T04:23:20.533Z,5.40
2019-02-24T04:24:20.526Z,5.44
2019-02-24T04:25:20.514Z,5.44
2019-02-24T04:26:20.503Z,5.47
2019-02-24T04:27:20.494Z,5.41
2019-02-24T04:28:20.479Z,5.33
2019-02-24T04:29:24.778Z,5.30
2019-02-24T04:30:20.453Z,5.32
2019-02-24T04:31:20.451Z,5.33
2019-02-24T04:32:20.438Z,5.33
2019-02-24T04:33:20.421Z,5.29
2019-02-24T04:34:20.413Z,5.25
2019-02-24T04:35:20.405Z,5.25
2019-02-24T04:36:20.390Z,5.37
2019-02-24T04:37:20.386Z,5.25
2019-02-24T04:38:20.367Z,5.37
2019-02-24T04:39:20.356Z,5.32
2019-02-24T04:40:20.349Z,5.22
2019-02-24T04:41:21.122Z,5.30
2019-02-24T04:42:20.326Z,5.34
2019-02-24T04:43:20.314Z,5.41
2019-02-24T04:44:20.324Z,5.36
2019-02-24T04:45:20.290Z,5.33
2019-02-24T04:46:20.280Z,5.36
2019-02-24T04:47:20.265Z,5.32
2019-02-24T04:48:20.254Z,5.34
2019-02-24T04:49:20.245Z,5.30
2019-02-24T04:50:20.244Z,5.32
2019-02-24T04:51:20.219Z,5.32
2019-02-24T04:52:20.217Z,5.27
2019-02-24T04:53:20.200Z,5.37
2019-02-24T04:54:20.184Z,5.30
2019-02-24T04:55:20.180Z,5.32
2019-02-24T04:56:20.168Z,5.29
2019-02-24T04:57:20.164Z,5.27
2019-02-24T04:58:20.144Z,5.29
2019-02-24T04:59:20.131Z,5.25
2019-02-24T05:00:20.122Z,5.19
2019-02-24T05:01:20.110Z,5.32
2019-02-24T05:02:20.103Z,5.27
2019-02-24T05:03:20.090Z,5.30
2019-02-24T05:04:20.076Z,5.27
2019-02-24T05:05:20.062Z,5.25
2019-02-24T05:06:20.057Z,5.25
2019-02-24T05:07:20.046Z,5.27
2019-02-24T05:08:20.032Z,5.33
2019-02-24T05:09:20.019Z,5.16
2019-02-24T05:10:20.011Z,5.16
2019-02-24T05:11:19.996Z,5.18
2019-02-24T05:12:19.987Z,5.18
2019-02-24T05:13:19.975Z,5.16
2019-02-24T05:14:19.962Z,5.21
2019-02-24T05:15:19.955Z,5.14
2019-02-24T05:16:19.945Z,5.19
2019-02-24T05:17:19.932Z,5.11
2019-02-24T05:18:19.921Z,5.09
2019-02-24T05:19:19.907Z,5.12
2019-02-24T05:20:19.896Z,5.07
2019-02-24T05:21:19.889Z,5.12
2019-02-24T05:22:19.878Z,5.06
2019-02-24T05:23:19.866Z,5.14
2019-02-24T05:24:19.851Z,5.03
2019-02-24T05:25:19.847Z,5.15
2019-02-24T05:26:19.831Z,5.00
2019-02-24T05:27:19.821Z,5.00
2019-02-24T05:28:19.808Z,5.04
2019-02-24T05:29:20.440Z,4.93
2019-02-24T05:30:19.787Z,4.91
2019-02-24T05:31:19.805Z,4.91
2019-02-24T05:32:19.761Z,4.93
2019-02-24T05:33:19.750Z,4.93
2019-02-24T05:34:19.741Z,4.97
2019-02-24T05:35:19.732Z,4.94
2019-02-24T05:36:19.718Z,4.86
2019-02-24T05:37:19.704Z,4.88
2019-02-24T05:38:19.690Z,4.94
2019-02-24T05:39:19.684Z,4.82
2019-02-24T05:40:19.677Z,4.82
2019-02-24T05:41:19.659Z,4.86
2019-02-24T05:42:19.649Z,4.86
2019-02-24T05:43:19.634Z,4.83
2019-02-24T05:44:19.628Z,4.74
2019-02-24T05:45:19.620Z,4.86
2019-02-24T05:46:19.603Z,4.78
2019-02-24T05:47:19.594Z,4.72
2019-02-24T05:48:19.584Z,4.69
2019-02-24T05:49:19.571Z,4.69
2019-02-24T05:50:19.565Z,4.67
2019-02-24T05:51:19.544Z,4.69
2019-02-24T05:52:19.547Z,4.63
2019-02-24T05:53:19.526Z,4.59
2019-02-24T05:54:19.516Z,4.63
2019-02-24T05:55:19.499Z,4.66
2019-02-24T05:56:19.488Z,4.63
2019-02-24T05:57:19.481Z,4.56
2019-02-24T05:58:19.466Z,4.54
2019-02-24T05:59:19.458Z,4.57
2019-02-24T06:00:19.444Z,4.49
2019-02-24T06:01:19.989Z,4.56
2019-02-24T06:02:19.423Z,4.56
2019-02-24T06:03:19.408Z,4.53
2019-02-24T06:04:19.399Z,4.51
2019-02-24T06:05:19.390Z,4.53
2019-02-24T06:06:19.374Z,4.46
2019-02-24T06:07:19.370Z,4.51
2019-02-24T06:08:19.354Z,4.38
2019-02-24T06:09:19.338Z,4.46
2019-02-24T06:10:19.329Z,4.48
2019-02-24T06:11:19.331Z,4.39
2019-02-24T06:12:19.308Z,4.35
2019-02-24T06:13:19.296Z,4.41
2019-02-24T06:14:19.285Z,4.38
2019-02-24T06:15:19.270Z,4.39
2019-02-24T06:16:19.264Z,4.49
2019-02-24T06:17:19.250Z,4.38
2019-02-24T06:18:19.606Z,4.41
2019-02-24T06:19:19.229Z,4.31
2019-02-24T06:20:19.212Z,4.42
2019-02-24T06:21:19.203Z,4.38
2019-02-24T06:22:19.192Z,4.34
2019-02-24T06:23:19.177Z,4.27
2019-02-24T06:24:19.167Z,4.26
2019-02-24T06:25:19.158Z,4.26
2019-02-24T06:26:19.145Z,4.26
2019-02-24T06:27:19.130Z,4.27
2019-02-24T06:28:19.120Z,4.28
2019-02-24T06:29:19.109Z,4.28
2019-02-24T06:30:19.096Z,4.26
2019-02-24T06:31:19.097Z,4.20
2019-02-24T06:32:19.079Z,4.23
2019-02-24T06:33:19.059Z,4.23
2019-02-24T06:34:19.050Z,4.21
2019-02-24T06:35:19.039Z,4.27
2019-02-24T06:36:19.032Z,4.24
2019-02-24T06:37:19.020Z,4.09
2019-02-24T06:38:19.007Z,4.16
2019-02-24T06:39:18.992Z,4.17
2019-02-24T06:40:18.982Z,4.05
2019-02-24T06:41:18.972Z,4.08
2019-02-24T06:42:18.960Z,4.05
2019-02-24T06:43:18.946Z,4.00
2019-02-24T06:44:18.939Z,4.10
2019-02-24T06:45:18.931Z,4.08
2019-02-24T06:46:18.911Z,4.06
2019-02-24T06:47:18.903Z,4.06
2019-02-24T06:48:18.891Z,4.12
2019-02-24T06:49:18.879Z,4.10
2019-02-24T06:50:18.866Z,4.05
2019-02-24T06:51:18.862Z,4.13
2019-02-24T06:52:18.844Z,4.16
2019-02-24T06:53:18.831Z,4.20
2019-02-24T06:54:18.819Z,4.09
2019-02-24T06:55:18.813Z,4.17
2019-02-24T06:56:18.798Z,4.24
2019-02-24T06:57:18.784Z,4.24
2019-02-24T06:58:18.788Z,4.21
2019-02-24T06:59:18.763Z,4.10
2019-02-24T07:00:18.752Z,4.20
2019-02-24T07:01:18.740Z,4.18
2019-02-24T07:02:18.728Z,4.24
2019-02-24T07:03:18.710Z,4.18
2019-02-24T07:04:18.704Z,4.21
2019-02-24T07:05:18.690Z,4.24
2019-02-24T07:06:18.678Z,4.23
2019-02-24T07:07:18.676Z,4.24
2019-02-24T07:08:18.659Z,4.28
2019-02-24T07:09:19.232Z,4.26
2019-02-24T07:10:18.642Z,4.20
2019-02-24T07:11:18.617Z,4.36
2019-02-24T07:12:18.614Z,4.28
2019-02-24T07:13:18.598Z,4.38
2019-02-24T07:14:18.591Z,4.31
2019-02-24T07:15:18.583Z,4.36
2019-02-24T07:16:18.565Z,4.39
2019-02-24T07:17:18.554Z,4.45
2019-02-24T07:18:18.537Z,4.43
2019-02-24T07:19:18.542Z,4.48
2019-02-24T07:20:18.521Z,4.53
2019-02-24T07:21:18.504Z,4.61
2019-02-24T07:22:18.499Z,4.67
2019-02-24T07:23:18.477Z,4.71
2019-02-24T07:24:18.469Z,4.75
2019-02-24T07:25:18.462Z,4.86
2019-02-24T07:26:18.448Z,4.91
2019-02-24T07:27:18.442Z,4.89
2019-02-24T07:28:18.431Z,4.93
2019-02-24T07:29:18.413Z,4.96
2019-02-24T07:30:23.404Z,5.06
2019-02-24T07:31:18.394Z,5.14
2019-02-24T07:32:18.387Z,5.19
2019-02-24T07:33:18.370Z,5.27
2019-02-24T07:34:18.361Z,5.33
2019-02-24T07:35:18.351Z,5.36
2019-02-24T07:36:18.335Z,5.50
2019-02-24T07:37:18.327Z,5.44
2019-02-24T07:38:18.311Z,5.54
2019-02-24T07:39:18.302Z,5.66
2019-02-24T07:40:18.292Z,5.70
2019-02-24T07:41:18.285Z,5.75
2019-02-24T07:42:18.273Z,5.88
2019-02-24T07:43:18.260Z,5.98
2019-02-24T07:44:18.246Z,6.13
2019-02-24T07:45:18.246Z,6.18
2019-02-24T07:46:18.229Z,6.31
2019-02-24T07:47:18.213Z,6.38
2019-02-24T07:48:18.200Z,6.35
2019-02-24T07:49:18.211Z,6.47
2019-02-24T07:50:18.180Z,6.49
2019-02-24T07:51:18.258Z,6.53
2019-02-24T07:52:18.186Z,6.65
2019-02-24T07:53:18.153Z,6.67
2019-02-24T07:54:18.142Z,6.74
2019-02-24T07:55:18.142Z,6.83
2019-02-24T07:56:18.124Z,6.79
2019-02-24T07:57:18.110Z,6.88
2019-02-24T07:58:18.112Z,7.08
2019-02-24T07:59:18.093Z,7.07
2019-02-24T08:00:18.081Z,7.24
2019-02-24T08:01:18.060Z,7.18
2019-02-24T08:02:18.077Z,7.26
2019-02-24T08:03:18.094Z,7.29
2019-02-24T08:04:18.068Z,7.28
2019-02-24T08:05:18.027Z,7.39
2019-02-24T08:06:18.021Z,7.40
2019-02-24T08:07:18.005Z,7.36
2019-02-24T08:08:17.997Z,7.44
2019-02-24T08:09:17.986Z,7.49
2019-02-24T08:10:17.979Z,7.47
2019-02-24T08:12:51.075Z,7.46
2019-02-24T08:13:51.044Z,7.49
2019-02-24T08:15:45.426Z,7.55
2019-02-24T08:16:45.391Z,7.64
2019-02-24T08:18:38.785Z,7.66
2019-02-24T08:19:38.748Z,7.66
2019-02-24T08:21:33.143Z,7.78
2019-02-24T08:22:33.098Z,7.74
2019-02-24T08:24:29.132Z,7.78
2019-02-24T08:25:27.451Z,7.94
2019-02-24T08:27:21.028Z,7.92
2019-02-24T08:28:20.991Z,7.98
2019-02-24T08:30:15.377Z,7.86
2019-02-24T08:31:15.344Z,7.84
2019-02-24T08:33:10.783Z,7.94
2019-02-24T08:34:08.718Z,7.87
2019-02-24T08:36:03.110Z,7.92
2019-02-24T08:38:16.487Z,7.96
2019-02-24T08:39:16.460Z,7.99
2019-02-24T08:41:11.256Z,8.02
2019-02-24T08:42:11.202Z,7.99
2019-02-24T08:44:04.593Z,7.96
2019-02-24T08:45:04.575Z,8.04
2019-02-24T08:46:58.936Z,8.06
2019-02-24T08:47:58.911Z,8.10
2019-02-24T08:49:53.302Z,8.06
2019-02-24T08:50:53.269Z,8.05
2019-02-24T08:52:47.655Z,8.04
2019-02-24T08:53:47.616Z,8.10
2019-02-24T08:55:41.046Z,8.12
2019-02-24T08:56:40.973Z,8.17
2019-02-24T08:58:35.373Z,8.20
2019-02-24T08:59:35.337Z,8.20
2019-02-24T09:00:35.330Z,8.23
2019-02-24T09:01:35.315Z,8.23
2019-02-24T09:02:35.320Z,8.17
2019-02-24T09:03:35.305Z,8.23
2019-02-24T09:04:35.294Z,8.31
2019-02-24T09:05:35.338Z,8.31
2019-02-24T09:06:35.272Z,8.34
2019-02-24T09:07:35.277Z,8.31
2019-02-24T09:08:35.617Z,8.38
2019-02-24T09:09:35.465Z,8.32
2019-02-24T09:10:35.235Z,8.34
2019-02-24T09:11:35.235Z,8.41
2019-02-24T09:12:35.216Z,8.38
2019-02-24T09:13:35.209Z,8.28
2019-02-24T09:14:35.222Z,8.49
2019-02-24T09:15:35.194Z,8.38
2019-02-24T09:16:35.186Z,8.46
2019-02-24T09:17:35.234Z,8.42
2019-02-24T09:18:35.245Z,8.42
2019-02-24T09:19:36.670Z,8.53
2019-02-24T09:20:35.148Z,8.53
2019-02-24T09:21:35.150Z,8.53
2019-02-24T09:22:35.139Z,8.50
2019-02-24T09:23:35.118Z,8.65
2019-02-24T09:24:35.103Z,8.71
2019-02-24T09:25:35.103Z,8.67
2019-02-24T09:26:35.103Z,8.75
2019-02-24T09:27:35.102Z,8.80
2019-02-24T09:28:35.093Z,8.78
2019-02-24T09:29:35.247Z,8.83
2019-02-24T09:30:35.063Z,8.83
2019-02-24T09:31:35.044Z,8.90
2019-02-24T09:32:35.042Z,9.03
2019-02-24T09:33:35.031Z,8.99
2019-02-24T09:34:35.048Z,9.03
2019-02-24T09:35:35.011Z,9.08
2019-02-24T09:36:35.001Z,9.12
2019-02-24T09:37:35.167Z,9.11
2019-02-24T09:38:34.984Z,9.08
2019-02-24T09:39:34.998Z,9.16
2019-02-24T09:40:34.967Z,9.12
2019-02-24T09:41:34.957Z,9.19
2019-02-24T09:42:34.966Z,9.12
2019-02-24T09:43:34.938Z,9.26
2019-02-24T09:44:34.939Z,9.24
2019-02-24T09:45:34.920Z,9.29
2019-02-24T09:46:35.156Z,9.29
2019-02-24T09:47:34.900Z,9.26
2019-02-24T09:48:34.913Z,9.29
2019-02-24T09:49:34.891Z,9.42
2019-02-24T09:50:34.880Z,9.37
2019-02-24T09:51:34.869Z,9.41
2019-02-24T09:52:34.866Z,9.40
2019-02-24T09:53:34.856Z,9.40
2019-02-24T09:54:34.846Z,9.36
2019-02-24T09:55:34.840Z,9.51
2019-02-24T09:56:34.821Z,9.50
2019-02-24T09:57:36.919Z,9.51
2019-02-24T09:58:34.812Z,9.54
2019-02-24T09:59:34.799Z,9.62
2019-02-24T10:00:34.794Z,9.54
2019-02-24T10:01:34.787Z,9.59
2019-02-24T10:02:34.776Z,9.62
2019-02-24T10:03:34.765Z,9.62
2019-02-24T10:04:34.756Z,9.55
2019-02-24T10:05:34.745Z,9.66
2019-02-24T10:06:34.739Z,9.67
2019-02-24T10:07:34.733Z,9.72
2019-02-24T10:08:34.724Z,9.77
2019-02-24T10:09:34.714Z,9.77
2019-02-24T10:10:34.706Z,9.73
2019-02-24T10:11:34.696Z,9.78
2019-02-24T10:12:34.697Z,9.87
2019-02-24T10:13:34.684Z,9.81
2019-02-24T10:14:34.672Z,9.81
2019-02-24T10:15:34.663Z,9.80
2019-02-24T10:16:34.663Z,9.75
2019-02-24T10:17:34.648Z,9.80
2019-02-24T10:18:34.637Z,9.94
2019-02-24T10:20:10.442Z,9.98
2019-02-24T10:20:34.628Z,10.01
2019-02-24T10:21:34.617Z,9.98
2019-02-24T10:22:34.605Z,10.05
2019-02-24T10:23:34.597Z,10.08
2019-02-24T10:24:34.591Z,10.08
2019-02-24T10:25:34.580Z,10.08
2019-02-24T10:26:34.587Z,10.17
2019-02-24T10:27:34.560Z,10.20
2019-02-24T10:28:34.557Z,10.17
2019-02-24T10:29:34.553Z,10.26
2019-02-24T10:30:34.547Z,10.24
2019-02-24T10:31:34.535Z,10.26
2019-02-24T10:32:34.528Z,10.30
2019-02-24T10:33:34.520Z,10.26
2019-02-24T10:34:34.506Z,10.28
2019-02-24T10:35:34.501Z,10.42
2019-02-24T10:36:34.489Z,10.38
2019-02-24T10:37:34.485Z,10.39
2019-02-24T10:38:34.473Z,10.42
2019-02-24T10:39:34.478Z,10.48
2019-02-24T10:40:34.457Z,10.52
2019-02-24T10:41:34.460Z,10.55
2019-02-24T10:42:34.449Z,10.49
2019-02-24T10:43:34.440Z,10.55
2019-02-24T10:44:34.429Z,10.55
2019-02-24T10:45:34.419Z,10.61
2019-02-24T10:46:34.424Z,10.64
2019-02-24T10:47:34.461Z,10.67
2019-02-24T10:48:34.399Z,10.58
2019-02-24T10:49:34.388Z,10.72
2019-02-24T10:50:34.379Z,10.70
2019-02-24T10:51:34.375Z,10.78
2019-02-24T10:52:34.370Z,10.87
2019-02-24T10:53:34.362Z,10.86
2019-02-24T10:54:34.355Z,10.94
2019-02-24T10:55:34.343Z,10.94
2019-02-24T10:56:34.334Z,11.03
2019-02-24T10:57:34.334Z,11.03
2019-02-24T10:58:35.059Z,11.08
2019-02-24T10:59:34.307Z,11.05
2019-02-24T11:00:34.302Z,11.16
2019-02-24T11:01:34.350Z,11.05
2019-02-24T11:02:34.288Z,11.11
2019-02-24T11:03:34.302Z,11.22
2019-02-24T11:04:34.325Z,11.20
2019-02-24T11:05:34.265Z,11.23
2019-02-24T11:06:34.258Z,11.23
2019-02-24T11:07:34.246Z,11.22
2019-02-24T11:08:34.240Z,11.27
2019-02-24T11:09:34.232Z,11.25
2019-02-24T11:10:34.243Z,11.27
2019-02-24T11:11:34.223Z,11.28
2019-02-24T11:12:34.211Z,11.34
2019-02-24T11:13:34.206Z,11.41
2019-02-24T11:14:34.195Z,11.40
2019-02-24T11:15:34.190Z,11.43
2019-02-24T11:16:34.181Z,11.37
2019-02-24T11:17:34.173Z,11.41
2019-02-24T11:18:34.165Z,11.43
2019-02-24T11:19:34.157Z,11.40
2019-02-24T11:20:34.142Z,11.54
2019-02-24T11:21:34.148Z,11.48
2019-02-24T11:22:34.136Z,11.56
2019-02-24T11:23:34.131Z,11.43
2019-02-24T11:24:34.120Z,11.55
2019-02-24T11:25:34.116Z,11.62
2019-02-24T11:26:34.120Z,11.66
2019-02-24T11:27:34.097Z,11.70
2019-02-24T11:28:34.092Z,11.67
2019-02-24T11:29:34.091Z,11.66
2019-02-24T11:30:34.076Z,11.71
2019-02-24T11:31:38.381Z,11.74
2019-02-24T11:32:34.057Z,11.80
2019-02-24T11:33:34.056Z,11.70
2019-02-24T11:34:34.045Z,11.77
2019-02-24T11:35:34.042Z,11.84
2019-02-24T11:36:34.033Z,11.80
2019-02-24T11:37:34.018Z,11.85
2019-02-24T11:38:34.026Z,11.85
2019-02-24T11:39:34.010Z,11.87
2019-02-24T11:40:34.019Z,11.89
2019-02-24T11:41:33.992Z,11.95
2019-02-24T11:42:33.992Z,11.88
2019-02-24T11:43:33.988Z,11.99
2019-02-24T11:44:33.973Z,11.88
2019-02-24T11:45:33.972Z,11.96
2019-02-24T11:46:33.968Z,11.79
2019-02-24T11:47:33.967Z,11.89
2019-02-24T11:48:33.979Z,12.00
2019-02-24T11:49:33.949Z,12.00
2019-02-24T11:50:33.931Z,11.96
2019-02-24T11:51:33.921Z,12.03
2019-02-24T11:52:33.919Z,12.04
2019-02-24T11:53:33.917Z,12.00
2019-02-24T11:54:33.974Z,12.10
2019-02-24T11:55:33.903Z,12.04
2019-02-24T11:56:33.895Z,12.10
2019-02-24T11:57:33.922Z,12.14
2019-02-24T11:58:33.897Z,12.17
2019-02-24T11:59:33.870Z,12.29
2019-02-24T12:00:33.867Z,12.23
2019-02-24T12:01:33.855Z,12.23
2019-02-24T12:02:34.671Z,12.28
2019-02-24T12:03:33.858Z,12.22
2019-02-24T12:04:33.829Z,12.32
2019-02-24T12:05:33.841Z,12.32
2019-02-24T12:06:33.841Z,12.32
2019-02-24T12:07:33.836Z,12.32
2019-02-24T12:08:33.819Z,12.38
2019-02-24T12:09:33.810Z,12.38
2019-02-24T12:10:33.795Z,12.40
2019-02-24T12:11:33.782Z,12.36
2019-02-24T12:12:33.778Z,12.40
2019-02-24T12:13:33.785Z,12.46
2019-02-24T12:14:33.766Z,12.38
2019-02-24T12:15:33.764Z,12.43
2019-02-24T12:16:33.755Z,12.47
2019-02-24T12:17:33.753Z,12.51
2019-02-24T12:18:33.754Z,12.47
2019-02-24T12:19:33.740Z,12.50
2019-02-24T12:20:33.745Z,12.59
2019-02-24T12:21:33.753Z,12.68
2019-02-24T12:22:33.709Z,12.71
2019-02-24T12:23:33.706Z,12.80
2019-02-24T12:24:33.701Z,12.80
2019-02-24T12:25:33.688Z,12.84
2019-02-24T12:26:35.157Z,12.79
2019-02-24T12:27:33.696Z,12.81
2019-02-24T12:28:33.673Z,12.88
2019-02-24T12:29:33.698Z,12.83
2019-02-24T12:30:33.673Z,12.86
2019-02-24T12:31:33.658Z,12.93
2019-02-24T12:32:33.642Z,12.93
2019-02-24T12:33:33.636Z,12.99
2019-02-24T12:34:33.650Z,12.99
2019-02-24T12:35:33.633Z,13.13
2019-02-24T12:36:33.616Z,13.08
2019-02-24T12:37:33.643Z,13.17
2019-02-24T12:38:33.609Z,13.09
2019-02-24T12:39:33.627Z,13.09
2019-02-24T12:40:33.590Z,13.14
2019-02-24T12:41:33.592Z,13.08
2019-02-24T12:42:33.597Z,13.16
2019-02-24T12:43:33.588Z,13.11
2019-02-24T12:44:33.572Z,13.11
2019-02-24T12:45:33.561Z,13.11
2019-02-24T12:46:33.556Z,13.17
2019-02-24T12:47:33.549Z,13.14
2019-02-24T12:48:33.550Z,13.19
2019-02-24T12:49:33.543Z,13.19
2019-02-24T12:50:33.555Z,13.27
2019-02-24T12:51:33.558Z,13.21
2019-02-24T12:52:33.520Z,13.26
2019-02-24T12:53:33.521Z,13.26
2019-02-24T12:54:33.507Z,13.27
2019-02-24T12:55:33.499Z,13.29
2019-02-24T12:56:33.505Z,13.26
2019-02-24T12:57:33.501Z,13.20
2019-02-24T12:58:33.482Z,13.39
2019-02-24T12:59:33.481Z,13.32
2019-02-24T13:00:33.481Z,13.32
2019-02-24T13:01:33.458Z,13.24
2019-02-24T13:02:33.464Z,13.36
2019-02-24T13:03:33.451Z,13.36
2019-02-24T13:04:33.461Z,13.38
2019-02-24T13:05:33.465Z,13.35
2019-02-24T13:06:33.428Z,13.40
2019-02-24T13:07:33.443Z,13.39
2019-02-24T13:08:33.431Z,13.45
2019-02-24T13:09:33.830Z,13.38
2019-02-24T13:10:33.432Z,13.47
2019-02-24T13:11:33.405Z,13.49
2019-02-24T13:12:33.407Z,13.55
2019-02-24T13:13:33.391Z,13.40
2019-02-24T13:14:33.381Z,13.57
2019-02-24T13:15:33.374Z,13.58
2019-02-24T13:16:33.366Z,13.55
2019-02-24T13:17:33.362Z,13.55
2019-02-24T13:18:33.363Z,13.54
2019-02-24T13:19:33.349Z,13.60
2019-02-24T13:20:33.357Z,13.65
2019-02-24T13:21:33.337Z,13.68
2019-02-24T13:22:33.331Z,13.72
2019-02-24T13:23:35.192Z,13.71
2019-02-24T13:24:33.350Z,13.68
2019-02-24T13:25:33.344Z,13.73
2019-02-24T13:26:33.306Z,13.72
2019-02-24T13:27:33.329Z,13.75
2019-02-24T13:28:33.308Z,13.67